Greenville, Rhode Island
Current Conditions -  °F | °C
As of 1:35 PM on Thursday 27 Nov 2014 (Local Time) from KSFZ Reporting Station
Overcast Overcast  
Wind Chill: 31°   Ceiling: 1400
Heat Index: 36°   Visibility: 10mi
Dew Point: 27°   Wind: 6mph
Humidity: 70%   Direction: 320°NW
Pressure: 29.92"   Gusts: NA
Location:  41.87°N, 71.55°W
Report Text: KSFZ 271835Z 32005KT 10SM BKN014 OVC037 02/M03 A2992 RMK AO1 P0001
Loading
Personal Weather Stations






























Interactive Weather Map New forecast layout! Learn more

10-Day Weather Forecast

Advertisements
Track Severe Weather on mobile